Time;durP1;ratioP1;P1;durP2;ratioP2;P2;SDS_P1;SDS_P2;PMS_P1;PMS_P2;Temp;Humidity;BMP_temperature;BMP_pressure;BME280_temperature;BME280_humidity;BME280_pressure;Samples;Min_cycle;Max_cycle;Signal;HPM_P1;HPM_P2
2023/01/05 00:00:17;;;;;;;;;;;;;;;28.53;25.73;101684.47;5069725;28;1992;-16
2023/01/05 00:02:42;;;;;;;;;;;;;;;28.26;26.27;101683.75;5056955;28;1091;-16
2023/01/05 00:05:08;;;;;;;;;;;;;;;27.37;27.24;101672.38;5056608;28;1044;-16
2023/01/05 00:07:33;;;;;;;;;;;;;;;27.98;26.75;101679.50;5068973;28;1032;-15
2023/01/05 00:09:58;;;;;;;;;;;;;;;28.55;25.75;101674.31;5057596;28;1063;-15
2023/01/05 00:23:19;;;;;;;;;;;;;;;27.84;26.88;101666.63;5068048;28;846;-15
2023/01/05 00:25:44;;;;;;;;;;;;;;;28.55;25.84;101660.78;5070913;28;1056;-16
2023/01/05 00:28:10;;;;;;;;;;;;;;;28.98;25.21;101667.81;5076136;28;1115;-16
2023/01/05 00:30:39;;;;;;;;;;;;;;;28.85;25.33;101663.78;5062629;28;1135;-16
2023/01/05 00:33:08;;;;;;;;;;;;;;;28.94;25.20;101661.06;5067843;28;1082;-16
2023/01/05 00:35:33;;;;;;;;;;;;;;;29.03;24.93;101660.03;5057848;28;1063;-16
2023/01/05 00:37:58;;;;;;;;;;;;;;;29.26;24.61;101658.44;5076132;28;1052;-15
2023/01/05 00:40:24;;;;;;;;;;;;;;;28.88;25.12;101657.16;5076182;28;1898;-16
2023/01/05 00:42:49;;;;;;;;;;;;;;;27.88;26.96;101654.47;5075811;28;1130;-16
2023/01/05 00:45:15;;;;;;;;;;;;;;;28.27;26.51;101652.13;5075913;28;1083;-16
2023/01/05 00:47:40;;;;;;;;;;;;;;;28.69;26.04;101651.13;5075339;28;949;-16
2023/01/05 00:50:06;;;;;;;;;;;;;;;28.30;26.20;101651.78;5057473;28;1056;-16
2023/01/05 00:52:31;;;;;;;;;;;;;;;28.21;26.53;101659.06;5068519;28;1191;-16
2023/01/05 00:54:56;;;;;;;;;;;;;;;28.96;25.37;101651.72;5068896;28;1048;-16
2023/01/05 00:57:22;;;;;;;;;;;;;;;29.43;24.81;101656.47;5056385;28;1039;-16
2023/01/05 00:59:47;;;;;;;;;;;;;;;29.30;24.90;101649.78;5069707;28;1909;-16
2023/01/05 01:02:12;;;;;;;;;;;;;;;29.48;24.66;101640.53;5075819;28;1046;-16
2023/01/05 01:04:38;;;;;;;;;;;;;;;29.33;24.72;101641.28;5062013;28;1039;-16
2023/01/05 01:07:03;;;;;;;;;;;;;;;29.40;24.34;101633.28;5062838;28;1136;-16
2023/01/05 01:09:28;;;;;;;;;;;;;;;28.82;25.47;101636.19;5061427;28;1397;-16
2023/01/05 01:11:54;;;;;;;;;;;;;;;28.60;25.83;101620.50;5062757;28;886;-16
2023/01/05 01:14:19;;;;;;;;;;;;;;;28.50;26.07;101619.00;5044861;28;1175;-16
2023/01/05 01:16:44;;;;;;;;;;;;;;;28.44;26.17;101620.53;5068861;28;1186;-16
2023/01/05 01:19:13;;;;;;;;;;;;;;;29.09;25.14;101628.69;5068534;28;1968;-16
2023/01/05 01:21:38;;;;;;;;;;;;;;;29.26;24.86;101618.63;5063285;28;1124;-16
2023/01/05 01:24:04;;;;;;;;;;;;;;;28.28;26.50;101608.66;5074992;28;872;-15
2023/01/05 01:26:29;;;;;;;;;;;;;;;28.14;26.87;101606.66;5068072;28;1182;-16
2023/01/05 01:28:54;;;;;;;;;;;;;;;28.21;26.44;101596.84;5069137;28;1104;-16
2023/01/05 01:31:20;;;;;;;;;;;;;;;28.27;26.40;101595.31;5062860;28;1180;-16
2023/01/05 01:33:45;;;;;;;;;;;;;;;27.94;27.22;101591.63;5061146;28;1101;-16
2023/01/05 01:36:10;;;;;;;;;;;;;;;28.61;25.64;101580.75;5062780;28;933;-16
2023/01/05 01:38:36;;;;;;;;;;;;;;;29.23;24.87;101586.47;5062263;28;1969;-16
2023/01/05 01:41:01;;;;;;;;;;;;;;;29.57;24.63;101590.69;5068314;28;1063;-15
2023/01/05 01:43:41;;;;;;;;;;;;;;;29.70;24.66;101578.41;5052991;28;1175;-16
2023/01/05 01:46:07;;;;;;;;;;;;;;;29.40;24.83;101580.94;5079302;28;1101;-16
2023/01/05 01:48:33;;;;;;;;;;;;;;;29.66;24.45;101572.50;5076237;28;842;-16
2023/01/05 01:50:58;;;;;;;;;;;;;;;29.19;25.40;101568.88;5068220;28;1012;-16
2023/01/05 01:53:25;;;;;;;;;;;;;;;28.60;26.25;101565.53;5058423;28;1054;-16
2023/01/05 01:55:50;;;;;;;;;;;;;;;28.89;25.81;101563.22;5050780;28;1140;-15
2023/01/05 01:58:16;;;;;;;;;;;;;;;28.99;25.62;101560.34;5057944;28;1278;-16
2023/01/05 02:00:41;;;;;;;;;;;;;;;29.21;25.26;101564.13;5067705;28;1970;-16
2023/01/05 02:03:06;;;;;;;;;;;;;;;29.32;24.84;101555.59;5074991;28;1199;-16
2023/01/05 02:05:32;;;;;;;;;;;;;;;29.17;25.27;101550.09;5069535;28;1063;-16
2023/01/05 02:07:58;;;;;;;;;;;;;;;29.38;25.04;101550.50;5072258;28;1260;-16
2023/01/05 02:10:45;;;;;;;;;;;;;;;29.37;25.46;101543.38;5059041;28;1123;-16
2023/01/05 02:13:29;;;;;;;;;;;;;;;29.52;24.91;101538.00;5041167;28;1025;-16
2023/01/05 02:15:57;;;;;;;;;;;;;;;29.64;24.34;101535.75;5058675;28;1128;-16
2023/01/05 02:18:29;;;;;;;;;;;;;;;28.76;25.89;101534.84;5058658;28;1012;-16
2023/01/05 02:20:54;;;;;;;;;;;;;;;28.87;25.68;101533.63;5061008;28;1106;-16
2023/01/05 02:23:28;;;;;;;;;;;;;;;28.87;25.94;101528.19;5069908;28;1167;-15
2023/01/05 02:26:11;;;;;;;;;;;;;;;29.24;25.39;101525.84;5041341;28;1071;-16
2023/01/05 02:28:49;;;;;;;;;;;;;;;29.46;24.66;101523.34;5070684;28;1174;-16
2023/01/05 02:31:24;;;;;;;;;;;;;;;29.57;24.82;101522.91;5053855;28;1087;-16
2023/01/05 02:34:08;;;;;;;;;;;;;;;29.28;25.49;101513.59;5059998;28;1135;-16
2023/01/05 02:36:35;;;;;;;;;;;;;;;29.07;25.66;101506.97;5078191;28;821;-16
2023/01/05 02:39:12;;;;;;;;;;;;;;;29.28;25.14;101508.19;5043779;28;1987;-16
2023/01/05 02:41:47;;;;;;;;;;;;;;;29.64;24.59;101506.78;5048489;28;1111;-16
2023/01/05 02:44:14;;;;;;;;;;;;;;;29.02;25.61;101508.53;5047306;28;1051;-16
2023/01/05 02:46:39;;;;;;;;;;;;;;;27.96;27.50;101492.22;5064191;28;1102;-16
2023/01/05 02:49:04;;;;;;;;;;;;;;;28.19;27.15;101488.81;5058032;28;819;-16
2023/01/05 02:51:35;;;;;;;;;;;;;;;28.98;25.85;101480.13;5071679;28;1117;-16
2023/01/05 02:54:05;;;;;;;;;;;;;;;29.32;24.97;101476.16;5059610;28;1110;-16
2023/01/05 02:56:32;;;;;;;;;;;;;;;29.25;25.48;101476.03;5077063;28;1036;-16
2023/01/05 02:59:02;;;;;;;;;;;;;;;29.38;25.29;101475.44;5057849;28;1902;-16
2023/01/05 03:01:32;;;;;;;;;;;;;;;29.20;25.25;101476.59;5071399;28;1060;-16
2023/01/05 03:03:59;;;;;;;;;;;;;;;29.50;24.88;101475.00;5048313;28;1088;-16
2023/01/05 03:06:28;;;;;;;;;;;;;;;29.63;24.71;101469.03;5057537;28;1027;-16
2023/01/05 03:08:55;;;;;;;;;;;;;;;28.34;26.81;101472.72;5058086;28;1053;-16
2023/01/05 03:14:08;;;;;;;;;;;;;;;28.44;26.61;101460.88;5057450;28;1063;-16
2023/01/05 03:16:34;;;;;;;;;;;;;;;29.11;25.42;101452.44;5046889;28;1059;-16
2023/01/05 03:35:29;;;;;;;;;;;;;;;28.47;26.50;101426.19;5049223;28;1030;-16
2023/01/05 03:38:20;;;;;;;;;;;;;;;28.73;26.08;101438.56;5060142;28;1090;-16
2023/01/05 03:40:46;;;;;;;;;;;;;;;28.91;25.93;101440.16;5060840;28;1894;-16
2023/01/05 03:43:11;;;;;;;;;;;;;;;28.89;26.00;101433.25;5059377;28;1131;-16
2023/01/05 03:45:38;;;;;;;;;;;;;;;29.48;24.81;101434.53;5041045;28;1047;-16
2023/01/05 03:48:03;;;;;;;;;;;;;;;29.63;24.74;101425.66;5067683;28;1525;-16
2023/01/05 03:50:28;;;;;;;;;;;;;;;29.69;24.77;101427.59;5072563;28;1000;-15
2023/01/05 03:52:54;;;;;;;;;;;;;;;29.41;24.94;101426.28;5057006;28;1086;-16
2023/01/05 03:55:19;;;;;;;;;;;;;;;29.73;24.42;101426.19;5060916;28;1060;-16
2023/01/05 03:57:44;;;;;;;;;;;;;;;29.25;25.27;101423.72;5066057;28;1081;-16
2023/01/05 04:00:10;;;;;;;;;;;;;;;28.38;26.72;101434.53;5056742;28;1919;-15
2023/01/05 04:02:35;;;;;;;;;;;;;;;28.71;24.72;101432.47;5067368;28;1195;-15
2023/01/05 04:05:00;;;;;;;;;;;;;;;28.40;24.91;101417.06;5062139;28;1028;-15
2023/01/05 04:07:26;;;;;;;;;;;;;;;28.29;25.34;101418.28;5066943;28;1221;-16
2023/01/05 04:09:51;;;;;;;;;;;;;;;28.19;25.28;101418.50;5069867;28;1090;-16
2023/01/05 04:12:16;;;;;;;;;;;;;;;28.14;25.48;101411.91;5056788;28;1048;-16
2023/01/05 04:14:41;;;;;;;;;;;;;;;27.98;25.57;101414.47;5073821;28;1195;-16
2023/01/05 04:17:07;;;;;;;;;;;;;;;27.93;25.54;101418.69;5076356;28;1024;-15
2023/01/05 04:19:32;;;;;;;;;;;;;;;27.97;25.52;101415.50;5072638;28;1902;-15
2023/01/05 04:21:57;;;;;;;;;;;;;;;28.08;25.45;101410.72;5056488;28;1231;-15
2023/01/05 04:24:23;;;;;;;;;;;;;;;27.96;25.30;101415.69;5056514;28;1238;-15
2023/01/05 04:26:48;;;;;;;;;;;;;;;27.75;25.97;101415.19;5066990;28;1033;-14
2023/01/05 04:29:13;;;;;;;;;;;;;;;27.70;25.94;101409.47;5062887;28;1170;-14
2023/01/05 04:31:39;;;;;;;;;;;;;;;26.57;23.33;101422.44;5076010;28;1183;-15
2023/01/05 04:34:04;;;;;;;;;;;;;;;25.76;24.11;101410.00;5054908;28;1106;-15
2023/01/05 04:36:29;;;;;;;;;;;;;;;24.82;28.36;101406.59;5038153;28;1347;-14
2023/01/05 04:38:55;;;;;;;;;;;;;;;26.16;27.52;101415.78;5042474;28;1960;-14
2023/01/05 04:41:20;;;;;;;;;;;;;;;27.51;24.88;101411.47;5066577;28;1138;-15
2023/01/05 04:43:45;;;;;;;;;;;;;;;26.76;25.32;101407.81;5059295;28;1250;-14
2023/01/05 04:46:10;;;;;;;;;;;;;;;26.95;25.68;101413.94;5076470;28;1190;-15
2023/01/05 04:48:36;;;;;;;;;;;;;;;25.67;27.73;101411.81;5059754;28;1140;-15
2023/01/05 04:51:01;;;;;;;;;;;;;;;25.39;28.37;101403.81;5065799;28;1071;-14
2023/01/05 04:53:26;;;;;;;;;;;;;;;26.12;27.55;101399.13;5045340;28;1043;-15
2023/01/05 04:55:52;;;;;;;;;;;;;;;25.62;26.61;101400.63;5069339;28;1294;-15
2023/01/05 04:58:18;;;;;;;;;;;;;;;24.82;27.26;101395.81;5067919;28;1313;-16
2023/01/05 05:00:44;;;;;;;;;;;;;;;25.02;25.51;101387.66;5076067;28;1914;-17
2023/01/05 05:03:09;;;;;;;;;;;;;;;24.72;26.51;101380.75;5075591;28;1099;-17
2023/01/05 05:05:34;;;;;;;;;;;;;;;24.58;26.71;101380.25;5069859;28;1082;-17
2023/01/05 05:07:59;;;;;;;;;;;;;;;24.43;26.62;101386.16;5068700;28;1178;-17
2023/01/05 05:10:25;;;;;;;;;;;;;;;24.94;25.42;101377.66;5076043;28;1094;-17
2023/01/05 05:12:50;;;;;;;;;;;;;;;25.39;25.92;101358.03;5068510;28;1131;-17
2023/01/05 05:15:15;;;;;;;;;;;;;;;26.06;25.37;101356.59;5070232;28;1107;-17
2023/01/05 05:17:41;;;;;;;;;;;;;;;26.17;25.70;101356.31;5072893;28;1217;-16
2023/01/05 05:20:06;;;;;;;;;;;;;;;25.48;27.43;101348.13;5077756;28;1901;-17
2023/01/05 05:22:32;;;;;;;;;;;;;;;25.28;28.14;101351.88;5059962;28;1136;-17
2023/01/05 05:24:57;;;;;;;;;;;;;;;26.23;26.93;101344.03;5063465;28;1125;-17
2023/01/05 05:27:22;;;;;;;;;;;;;;;26.72;25.89;101358.72;5058648;28;1359;-17
2023/01/05 05:29:47;;;;;;;;;;;;;;;26.77;25.98;101353.69;5059092;28;1368;-16
2023/01/05 05:32:13;;;;;;;;;;;;;;;25.58;28.44;101342.66;5067415;28;1242;-16
2023/01/05 05:34:38;;;;;;;;;;;;;;;25.54;28.61;101345.66;5064938;28;1045;-16
2023/01/05 05:37:03;;;;;;;;;;;;;;;26.39;27.03;101337.88;5059439;28;1207;-16
2023/01/05 05:39:29;;;;;;;;;;;;;;;26.99;26.20;101347.81;5073693;28;1974;-16
2023/01/05 05:41:54;;;;;;;;;;;;;;;26.99;26.18;101337.81;5071853;28;1167;-17
2023/01/05 05:44:19;;;;;;;;;;;;;;;26.04;27.91;101335.19;5062085;28;1275;-16
2023/01/05 05:46:44;;;;;;;;;;;;;;;25.72;28.56;101323.25;5058759;28;1174;-16
2023/01/05 05:49:10;;;;;;;;;;;;;;;25.80;28.85;101325.16;5069530;28;1084;-16
2023/01/05 05:51:35;;;;;;;;;;;;;;;26.71;26.87;101318.41;5079004;28;1071;-16
2023/01/05 05:54:00;;;;;;;;;;;;;;;27.13;26.22;101328.25;5068418;28;1071;-16
2023/01/05 05:56:26;;;;;;;;;;;;;;;27.02;26.68;101320.50;5072138;28;1063;-16
2023/01/05 05:58:51;;;;;;;;;;;;;;;25.84;28.47;101317.59;5072775;28;1906;-16
2023/01/05 06:01:16;;;;;;;;;;;;;;;25.91;28.79;101322.16;5078457;28;1352;-16
2023/01/05 06:03:41;;;;;;;;;;;;;;;25.94;28.73;101314.78;5070359;28;1134;-16
2023/01/05 06:06:07;;;;;;;;;;;;;;;26.81;26.92;101304.75;5072281;28;940;-16
2023/01/05 06:08:32;;;;;;;;;;;;;;;27.29;26.29;101317.59;5058883;28;1086;-16
2023/01/05 06:10:58;;;;;;;;;;;;;;;27.08;26.48;101309.00;5059980;28;1195;-16
2023/01/05 06:13:23;;;;;;;;;;;;;;;26.00;28.78;101290.72;5070071;28;1341;-17
2023/01/05 06:15:48;;;;;;;;;;;;;;;26.97;27.22;101290.41;5057850;28;1234;-16
2023/01/05 06:18:13;;;;;;;;;;;;;;;27.42;26.68;101282.81;5058448;28;1246;-16
2023/01/05 06:20:39;;;;;;;;;;;;;;;27.78;26.11;101291.53;5058350;28;1929;-16
2023/01/05 06:23:04;;;;;;;;;;;;;;;28.01;26.01;101297.00;5077293;28;1231;-16
2023/01/05 06:25:30;;;;;;;;;;;;;;;28.30;25.34;101302.78;5070335;28;1206;-17
2023/01/05 06:27:55;;;;;;;;;;;;;;;28.50;24.86;101294.22;5057858;28;1139;-17
2023/01/05 06:30:20;;;;;;;;;;;;;;;28.23;25.31;101295.38;5065149;28;1111;-16
2023/01/05 06:32:45;;;;;;;;;;;;;;;28.27;25.56;101295.00;5058260;28;1237;-16
2023/01/05 06:35:11;;;;;;;;;;;;;;;28.53;25.35;101294.72;5058525;28;1254;-16
2023/01/05 06:37:36;;;;;;;;;;;;;;;28.21;25.14;101285.75;5066691;28;1143;-17
2023/01/05 06:40:01;;;;;;;;;;;;;;;28.35;25.68;101298.56;5072032;28;1893;-16
2023/01/05 06:42:27;;;;;;;;;;;;;;;28.55;25.25;101284.56;5058044;28;1204;-17
2023/01/05 06:44:52;;;;;;;;;;;;;;;28.72;25.15;101284.44;5077170;28;1104;-17
2023/01/05 06:47:18;;;;;;;;;;;;;;;28.66;24.47;101290.59;5078033;28;1226;-17
2023/01/05 06:49:43;;;;;;;;;;;;;;;28.33;24.58;101264.56;5072015;28;1246;-17
2023/01/05 06:52:08;;;;;;;;;;;;;;;28.47;25.57;101279.19;5057867;28;1222;-17
2023/01/05 06:54:33;;;;;;;;;;;;;;;28.55;25.40;101289.13;5058005;28;1230;-17
2023/01/05 06:56:59;;;;;;;;;;;;;;;28.72;25.18;101282.59;5057658;28;1294;-17
2023/01/05 06:59:24;;;;;;;;;;;;;;;29.02;24.86;101286.41;5046613;28;1969;-17
2023/01/05 07:01:49;;;;;;;;;;;;;;;28.85;24.90;101284.69;5040094;28;912;-17
2023/01/05 07:04:15;;;;;;;;;;;;;;;28.54;24.93;101279.31;5037910;28;1234;-17
2023/01/05 07:06:40;;;;;;;;;;;;;;;29.02;25.22;101281.00;5038177;28;1167;-17
2023/01/05 07:09:05;;;;;;;;;;;;;;;28.96;24.36;101271.72;5050976;28;1040;-17
2023/01/05 07:11:31;;;;;;;;;;;;;;;28.63;24.89;101274.72;5040118;28;1149;-16
2023/01/05 07:13:56;;;;;;;;;;;;;;;28.65;25.52;101278.06;5041699;28;1250;-16
2023/01/05 07:16:21;;;;;;;;;;;;;;;28.84;25.34;101274.84;5037078;28;1310;-16
2023/01/05 07:18:46;;;;;;;;;;;;;;;28.96;24.75;101267.13;5040351;28;1894;-17
2023/01/05 07:21:12;;;;;;;;;;;;;;;29.23;24.72;101260.50;5036763;28;1262;-17
2023/01/05 07:23:37;;;;;;;;;;;;;;;29.13;24.46;101250.75;5040254;28;1168;-17
2023/01/05 07:26:03;;;;;;;;;;;;;;;28.86;24.44;101253.03;5046206;28;1223;-17
2023/01/05 07:28:28;;;;;;;;;;;;;;;29.13;24.57;101253.47;5042830;28;1200;-17
2023/01/05 07:30:54;;;;;;;;;;;;;;;28.88;24.67;101255.56;5037396;28;1215;-17
2023/01/05 07:33:19;;;;;;;;;;;;;;;28.85;25.09;101252.19;5047267;28;1123;-16
2023/01/05 07:35:44;;;;;;;;;;;;;;;29.05;25.18;101248.13;5037075;28;1226;-16
2023/01/05 07:38:10;;;;;;;;;;;;;;;29.13;24.86;101245.34;5048503;28;1076;-17
2023/01/05 07:40:35;;;;;;;;;;;;;;;29.23;25.25;101239.66;5043193;28;1910;-17
2023/01/05 07:43:00;;;;;;;;;;;;;;;29.32;25.05;101238.56;5045597;28;1064;-17
2023/01/05 07:45:26;;;;;;;;;;;;;;;29.33;24.59;101236.66;5055062;28;1431;-17
2023/01/05 07:47:51;;;;;;;;;;;;;;;29.42;24.63;101226.59;5053952;28;1392;-15
2023/01/05 07:50:16;;;;;;;;;;;;;;;29.13;25.42;101226.38;5038516;28;1523;-16
2023/01/05 07:52:41;;;;;;;;;;;;;;;29.27;25.47;101229.28;5046150;28;1259;-16
2023/01/05 07:55:07;;;;;;;;;;;;;;;29.33;24.92;101223.13;5037203;28;1405;-17
2023/01/05 07:57:32;;;;;;;;;;;;;;;29.39;24.89;101213.41;5036870;28;1064;-16
2023/01/05 07:59:58;;;;;;;;;;;;;;;29.37;25.06;101216.31;5058349;28;1906;-16
2023/01/05 08:02:23;;;;;;;;;;;;;;;29.52;24.50;101215.44;5070916;28;878;-17
2023/01/05 08:04:48;;;;;;;;;;;;;;;29.15;24.87;101209.94;5071894;28;1334;-16
2023/01/05 08:07:14;;;;;;;;;;;;;;;28.89;25.29;101201.22;5060307;28;1114;-17
2023/01/05 08:12:24;;;;;;;;;;;;;;;28.58;25.59;101196.72;5073971;28;1000;-17
2023/01/05 08:14:49;;;;;;;;;;;;;;;28.59;25.27;101195.72;5074789;28;919;-17
2023/01/05 08:17:14;;;;;;;;;;;;;;;28.67;25.40;101187.53;5058379;28;1113;-16
2023/01/05 08:19:39;;;;;;;;;;;;;;;28.58;25.36;101183.19;5056387;28;1906;-18
2023/01/05 08:22:05;;;;;;;;;;;;;;;28.55;25.29;101192.53;5060314;28;1164;-18
2023/01/05 08:24:30;;;;;;;;;;;;;;;28.53;26.04;101183.75;5064619;28;1034;-17
2023/01/05 08:26:56;;;;;;;;;;;;;;;28.48;25.98;101170.78;5055613;28;977;-17
2023/01/05 08:29:21;;;;;;;;;;;;;;;28.65;25.58;101170.63;5063682;28;1266;-17
2023/01/05 08:31:46;;;;;;;;;;;;;;;28.80;25.17;101167.94;5065507;28;1316;-18
2023/01/05 08:34:11;;;;;;;;;;;;;;;28.26;25.59;101163.50;5065153;28;1203;-18
2023/01/05 08:36:37;;;;;;;;;;;;;;;28.10;25.52;101149.06;5065810;28;1343;-18
2023/01/05 08:39:02;;;;;;;;;;;;;;;27.94;24.91;101153.56;5063206;28;1963;-17
2023/01/05 08:41:30;;;;;;;;;;;;;;;27.87;25.75;101156.16;5067446;28;1278;-18
2023/01/05 08:43:55;;;;;;;;;;;;;;;27.96;26.23;101148.81;5066372;28;1246;-18
2023/01/05 08:46:21;;;;;;;;;;;;;;;28.05;25.65;101143.34;5064387;28;1214;-17
2023/01/05 08:48:48;;;;;;;;;;;;;;;28.09;25.32;101131.97;5061377;28;1033;-17
2023/01/05 08:51:13;;;;;;;;;;;;;;;28.19;25.93;101131.75;5067481;28;1028;-17
2023/01/05 08:53:38;;;;;;;;;;;;;;;28.44;25.31;101125.31;5067022;28;1274;-17
2023/01/05 08:56:03;;;;;;;;;;;;;;;28.26;25.30;101117.50;5066068;28;1041;-18
2023/01/05 08:58:29;;;;;;;;;;;;;;;28.09;25.62;101107.63;5067273;28;1218;-17
2023/01/05 09:00:56;;;;;;;;;;;;;;;28.43;25.13;101110.94;5064930;28;1913;-17
2023/01/05 09:03:22;;;;;;;;;;;;;;;27.94;26.08;101109.47;5063473;28;1203;-18
2023/01/05 09:05:47;;;;;;;;;;;;;;;28.02;25.88;101103.13;5063977;28;1240;-17
2023/01/05 09:08:12;;;;;;;;;;;;;;;28.25;25.33;101092.31;5068878;28;1266;-17
2023/01/05 09:10:38;;;;;;;;;;;;;;;28.06;26.14;101088.25;5067041;28;1211;-18
2023/01/05 09:13:03;;;;;;;;;;;;;;;28.14;25.55;101085.47;5062374;28;1243;-18
2023/01/05 09:15:28;;;;;;;;;;;;;;;28.04;25.65;101083.03;5061881;28;1294;-18
2023/01/05 09:17:53;;;;;;;;;;;;;;;28.00;25.95;101079.00;5066344;28;1232;-18
2023/01/05 09:20:19;;;;;;;;;;;;;;;28.21;25.74;101074.78;5066550;28;1910;-17
2023/01/05 09:22:44;;;;;;;;;;;;;;;28.07;25.62;101071.84;5059335;28;1227;-17
2023/01/05 09:25:09;;;;;;;;;;;;;;;27.87;26.19;101057.97;5067303;28;1254;-17
2023/01/05 09:27:35;;;;;;;;;;;;;;;28.14;25.44;101050.31;5063984;28;1191;-17
2023/01/05 09:30:01;;;;;;;;;;;;;;;27.86;26.29;101051.72;5064413;28;1250;-19
2023/01/05 09:32:26;;;;;;;;;;;;;;;27.83;26.22;101049.38;5065315;28;1244;-18
2023/01/05 09:34:51;;;;;;;;;;;;;;;27.79;24.76;101034.56;5060742;28;1235;-17
2023/01/05 09:37:17;;;;;;;;;;;;;;;27.46;25.33;101034.75;5073227;28;1055;-17
2023/01/05 09:39:42;;;;;;;;;;;;;;;27.33;25.48;101027.19;5069887;28;1968;-17
2023/01/05 09:42:10;;;;;;;;;;;;;;;27.10;25.41;101009.97;5062741;28;794;-17
2023/01/05 09:44:36;;;;;;;;;;;;;;;27.59;25.11;101007.13;5054526;28;1029;-18
2023/01/05 09:47:12;;;;;;;;;;;;;;;27.33;25.91;101001.03;5064038;28;1123;-18
2023/01/05 09:49:38;;;;;;;;;;;;;;;27.48;25.62;100997.56;5050751;28;1009;-18
2023/01/05 09:52:09;;;;;;;;;;;;;;;27.28;25.72;100992.63;5055699;28;876;-17
2023/01/05 09:54:34;;;;;;;;;;;;;;;27.28;25.72;100987.22;5062083;28;1535;-18
2023/01/05 09:57:00;;;;;;;;;;;;;;;27.39;25.67;100976.00;5043666;28;1342;-17
2023/01/05 09:59:27;;;;;;;;;;;;;;;27.24;25.56;100975.94;5069014;28;1976;-17
2023/01/05 10:01:53;;;;;;;;;;;;;;;27.06;25.92;100968.13;5047059;28;1064;-17
2023/01/05 10:04:20;;;;;;;;;;;;;;;27.22;24.75;100963.66;5060248;28;1992;-17
2023/01/05 10:06:46;;;;;;;;;;;;;;;27.23;25.69;100952.66;5053697;28;1297;-17
2023/01/05 10:09:14;;;;;;;;;;;;;;;27.31;25.58;100945.53;5054447;28;1226;-17
2023/01/05 10:14:39;;;;;;;;;;;;;;;27.17;25.57;100941.72;5049959;28;1169;-17
2023/01/05 10:17:23;;;;;;;;;;;;;;;27.28;25.38;100919.72;5067389;28;1136;-17
2023/01/05 10:19:49;;;;;;;;;;;;;;;27.28;25.33;100910.78;5061058;28;1989;-17
2023/01/05 10:22:26;;;;;;;;;;;;;;;27.37;25.36;100899.72;5071351;28;1092;-17
2023/01/05 10:25:10;;;;;;;;;;;;;;;27.30;24.59;100889.81;5067716;28;1066;-18
2023/01/05 10:27:39;;;;;;;;;;;;;;;26.92;25.06;100879.75;5067951;28;1375;-18
2023/01/05 10:30:17;;;;;;;;;;;;;;;26.72;24.89;100880.22;5049431;28;1271;-18
2023/01/05 10:32:45;;;;;;;;;;;;;;;26.53;25.17;100879.63;5071549;28;1494;-18
2023/01/05 10:35:30;;;;;;;;;;;;;;;26.60;25.40;100880.63;5066812;28;1294;-17
2023/01/05 10:38:11;;;;;;;;;;;;;;;26.37;25.27;100870.63;5066502;28;1495;-18
2023/01/05 10:40:55;;;;;;;;;;;;;;;26.47;24.97;100859.63;5064725;28;1977;-18
2023/01/05 10:43:30;;;;;;;;;;;;;;;26.24;25.23;100854.13;5076307;28;1175;-18
2023/01/05 10:45:56;;;;;;;;;;;;;;;26.30;25.46;100850.72;5077997;28;1115;-17
2023/01/05 10:48:23;;;;;;;;;;;;;;;26.41;25.03;100849.50;5078095;28;1273;-17
2023/01/05 10:50:48;;;;;;;;;;;;;;;26.24;25.65;100849.53;5077373;28;1245;-17
2023/01/05 10:53:14;;;;;;;;;;;;;;;26.47;25.21;100848.81;5075941;28;1556;-18
2023/01/05 10:55:49;;;;;;;;;;;;;;;26.39;25.26;100851.56;5041648;28;1151;-18
2023/01/05 10:58:21;;;;;;;;;;;;;;;26.70;24.88;100844.47;5041494;28;1328;-18
2023/01/05 11:00:46;;;;;;;;;;;;;;;26.83;23.81;100833.94;5069221;28;1913;-18
2023/01/05 11:03:12;;;;;;;;;;;;;;;26.70;24.43;100826.44;5071087;28;1344;-17
2023/01/05 11:05:40;;;;;;;;;;;;;;;26.80;24.09;100828.03;5051386;28;1004;-17
2023/01/05 11:08:06;;;;;;;;;;;;;;;26.56;24.64;100821.81;5059954;28;1009;-17
2023/01/05 11:10:33;;;;;;;;;;;;;;;26.67;24.58;100817.84;5049240;28;1087;-17
2023/01/05 11:13:19;;;;;;;;;;;;;;;26.78;25.14;100812.88;5056090;28;1486;-17
2023/01/05 11:16:11;;;;;;;;;;;;;;;26.70;25.20;100806.69;5056110;28;1403;-17
2023/01/05 11:18:49;;;;;;;;;;;;;;;26.70;24.93;100788.66;5059697;28;2018;-18
2023/01/05 11:21:35;;;;;;;;;;;;;;;26.82;24.92;100788.22;5062451;28;1527;-17
2023/01/05 11:24:00;;;;;;;;;;;;;;;26.95;24.76;100790.31;5049897;28;1542;-17
2023/01/05 11:26:32;;;;;;;;;;;;;;;26.98;24.57;100776.44;5066423;28;1176;-17
2023/01/05 11:29:02;;;;;;;;;;;;;;;26.87;24.89;100769.63;5045626;28;1255;-17
2023/01/05 11:31:37;;;;;;;;;;;;;;;26.79;24.90;100765.16;5066156;28;1243;-17
2023/01/05 11:34:13;;;;;;;;;;;;;;;26.93;24.84;100763.50;5066941;28;1149;-18
2023/01/05 11:36:39;;;;;;;;;;;;;;;26.85;24.78;100753.63;5050339;28;1156;-18
2023/01/05 11:39:04;;;;;;;;;;;;;;;27.05;24.75;100765.81;5050461;28;1963;-18
2023/01/05 11:41:29;;;;;;;;;;;;;;;27.04;24.70;100753.34;5063034;28;1294;-18
2023/01/05 11:43:59;;;;;;;;;;;;;;;27.18;24.80;100752.53;5068201;28;1231;-18
2023/01/05 11:46:24;;;;;;;;;;;;;;;27.21;24.67;100749.44;5049549;28;1254;-17
2023/01/05 11:48:53;;;;;;;;;;;;;;;27.21;24.96;100740.53;5042138;28;2115;-18
2023/01/05 11:51:31;;;;;;;;;;;;;;;27.49;24.66;100742.59;5056779;28;1147;-18
2023/01/05 11:53:56;;;;;;;;;;;;;;;27.30;25.04;100738.56;5063936;28;1135;-18
2023/01/05 11:56:22;;;;;;;;;;;;;;;27.36;25.01;100729.75;5063671;28;1044;-18
2023/01/05 11:58:53;;;;;;;;;;;;;;;27.25;25.24;100728.31;5063556;28;1959;-17
2023/01/05 12:01:30;;;;;;;;;;;;;;;27.23;25.15;100724.97;5057172;28;959;-18
2023/01/05 12:04:14;;;;;;;;;;;;;;;27.33;24.87;100728.25;5067128;28;1271;-17
2023/01/05 12:06:45;;;;;;;;;;;;;;;27.46;25.33;100726.75;5061099;28;1037;-17
2023/01/05 12:09:30;;;;;;;;;;;;;;;27.47;25.02;100725.72;5056674;28;1124;-17
2023/01/05 12:12:15;;;;;;;;;;;;;;;27.34;25.42;100724.50;5063030;28;1163;-17
2023/01/05 12:15:04;;;;;;;;;;;;;;;27.33;25.66;100724.69;5062559;28;1173;-18
2023/01/05 12:17:47;;;;;;;;;;;;;;;27.28;25.75;100725.25;5034256;28;1929;-18
2023/01/05 12:20:31;;;;;;;;;;;;;;;27.43;25.61;100727.13;5065290;28;1965;-17
2023/01/05 12:22:56;;;;;;;;;;;;;;;27.61;25.57;100721.38;5066575;28;1267;-17
2023/01/05 12:25:25;;;;;;;;;;;;;;;27.48;25.80;100717.44;5058475;28;1000;-17
2023/01/05 12:27:59;;;;;;;;;;;;;;;27.35;25.63;100712.69;5067334;28;1286;-17
2023/01/05 12:30:43;;;;;;;;;;;;;;;27.55;25.69;100713.97;5062611;28;1088;-17
2023/01/05 12:33:26;;;;;;;;;;;;;;;27.59;25.68;100715.31;5060758;28;1160;-17
2023/01/05 12:35:55;;;;;;;;;;;;;;;27.61;25.82;100716.78;5065336;28;1188;-17
2023/01/05 12:38:41;;;;;;;;;;;;;;;27.67;26.15;100714.34;5047296;28;1243;-17
2023/01/05 12:41:06;;;;;;;;;;;;;;;27.75;25.95;100711.59;5046435;28;2033;-17
2023/01/05 12:43:34;;;;;;;;;;;;;;;27.65;25.88;100708.28;5064792;28;1346;-17
2023/01/05 12:46:02;;;;;;;;;;;;;;;27.59;25.62;100702.59;5069259;28;1207;-17
2023/01/05 12:48:28;;;;;;;;;;;;;;;27.62;25.67;100698.72;5047424;28;1238;-17
2023/01/05 12:51:14;;;;;;;;;;;;;;;27.66;26.15;100702.69;5047753;28;1227;-17
2023/01/05 12:54:12;;;;;;;;;;;;;;;27.57;25.98;100704.69;5066417;28;1443;-17
2023/01/05 12:56:43;;;;;;;;;;;;;;;27.62;26.11;100699.56;5027336;28;1197;-17
2023/01/05 12:59:20;;;;;;;;;;;;;;;27.62;25.99;100698.72;5042128;28;1897;-17
2023/01/05 13:02:06;;;;;;;;;;;;;;;27.66;25.98;100705.41;5065064;28;1152;-17
2023/01/05 13:04:51;;;;;;;;;;;;;;;27.77;25.64;100700.59;5057644;28;1273;-17
2023/01/05 13:07:24;;;;;;;;;;;;;;;27.67;26.09;100701.69;5066553;28;1270;-17
2023/01/05 13:09:54;;;;;;;;;;;;;;;27.68;25.75;100699.81;5048791;28;1208;-18
2023/01/05 13:12:19;;;;;;;;;;;;;;;27.62;25.69;100704.13;5048490;28;1211;-17
2023/01/05 13:14:52;;;;;;;;;;;;;;;27.69;26.08;100702.38;5064721;28;1253;-17
2023/01/05 13:17:24;;;;;;;;;;;;;;;27.68;26.03;100702.50;5046807;28;1347;-17
2023/01/05 13:19:51;;;;;;;;;;;;;;;27.73;26.13;100700.13;5048647;28;1953;-17
2023/01/05 13:22:27;;;;;;;;;;;;;;;27.74;26.05;100697.22;5048682;28;1223;-17
2023/01/05 13:25:10;;;;;;;;;;;;;;;27.73;25.78;100695.56;5065852;28;1141;-18
2023/01/05 13:27:36;;;;;;;;;;;;;;;27.76;26.45;100680.81;5064155;28;1140;-17